Elia Basile

Recruteur - Inter
17 Févr 2028
Jeudi
Processus

Personnalité

Adaptabilité (9) Ambition (10) Controverse (3) Loyauté (19) Pression (9) Professionnalisme (12) Sportivité (12) Tempérament (5)

Profil

Style d'entraînement Démocratique
Diplôme Continental Pro
Détermination 10
Gestion des joueurs 11
Motivation 7
Discipline 6
Satisfaction professionnelle
100%
Fatigue
0%
Rôle Recruteur
Salaire 95.4K p/s
Contrat 14.03.2028

Performance

Comportement Bon
Efficacité de l'entraînement
68%
Développement des joueurs
45%
Prévention des blessures
80%
Mise en place tactique
65%

Événements récents

Négociation de contrat entamée maintenant
A participé à une réunion de recrutement maintenant
A participé à une réunion de recrutement maintenant
Négociation de contrat entamée 7j
Négociation de contrat entamée 7j
Négociation de contrat entamée 7j
Négociation de contrat entamée 7j
Négociation de contrat entamée 7j

Suivi en cours

81
Joueur Club Statut Capacité Confiance Observé Dernière observation Dernier vote
Jayden Addai Como Actif 129 / 137 58% 1 01.06.2027 -
Yankuba Minteh Brighton Actif 145 / 154 40% 3 30.05.2027 -
Arthur Atta Fiorentina Actif 147 / 144 40% 5 30.05.2027 -
Facundo Di Biasi Gimnasia La Plata Actif 123 / 124 40% 1 30.05.2027 -
Wesley AS Roma Actif 157 / 150 40% 9 28.05.2027 -
Víctor Muñoz Liverpool Actif 143 / 145 40% 5 28.05.2027 -
Matías Soulé AS Roma Actif 168 / 156 40% 5 27.05.2027 -
Mika Godts Paris Saint-Germain Actif 138 / 141 40% 4 27.05.2027 -
Jesús Rodríguez Como Actif 148 / 147 40% 9 26.05.2027 -
Jofre Torrents Ajax Actif 123 / 128 40% 2 26.05.2027 -
Luka Vušković Manchester United Actif 139 / 147 40% 2 26.05.2027 -
Tyler Dibling Chelsea Actif 149 / 143 40% 2 26.05.2027 -
Assane Diao Lazio Actif 139 / 147 40% 12 25.05.2027 -
Ezra Mayers West Ham United Actif 122 / 126 40% 1 22.05.2027 -
Santiago Castro AS Roma Actif 151 / 149 40% 6 20.05.2027 -
Juan Rodríguez Cagliari Actif 129 / 126 40% 1 20.05.2027 -
Yasin Ayari Arsenal Actif 144 / 146 40% 4 18.05.2027 -
Valentin Atangana Al-Ahli Actif 114 / 135 40% 4 18.05.2027 -
Veljko Milosavljević Aston Villa Actif 124 / 139 40% 2 18.05.2027 -
Edoardo Motta Lazio Actif 116 / 127 40% 1 15.05.2027 -
Chemsdine Talbi Chelsea Actif 150 / 142 40% 5 11.05.2027 -
Jhon Jhon Zenit Actif 128 / 136 40% 1 05.05.2027 -
Karim Coulibaly RC Strasbourg Actif 116 / 131 40% 2 03.05.2027 -
Juan Giménez Celta Actif 126 / 121 40% 1 23.04.2027 -
Ilias Akhomach Villarreal Actif 137 / 144 40% 2 21.04.2027 -
Sascha Britschgi Padova Actif 125 / 127 40% 2 20.04.2027 -
Ander Astralaga Real Sociedad Actif 129 / 131 40% 1 20.04.2027 -
Christ Inao Oulaï Fiorentina Actif 134 / 138 55% 3 13.04.2027 -
Josh King Chelsea Actif 142 / 144 40% 2 12.04.2027 -
Nicolò Savona Nottingham Forest Actif 151 / 142 40% 2 03.04.2027 -
Kenneth Taylor Lazio Actif 141 / 151 40% 6 30.03.2027 -
Devyne Rensch AS Roma Actif 152 / 139 40% 4 22.03.2027 -
Dean Huijsen Villarreal Actif 136 / 147 40% 2 09.03.2027 -
Abubacarr Sedi Kinteh Al-Hilal Actif 115 / 130 40% 1 09.03.2027 -
Santiago Fernández Talleres Actif 126 / 124 40% 1 08.03.2027 -
Ignacio Perruzzi San Lorenzo Actif 126 / 128 40% 1 06.03.2027 -
Antonio Vergara Napoli Actif 130 / 138 40% 1 02.03.2027 -
Lucas Da Cunha Como Actif 150 / 143 40% 2 28.12.2026 -
Nicolò Zaniolo Udinese Actif 157 / 138 40% 3 22.12.2026 -
Billy Gilmour Napoli Actif 141 / 149 40% 1 22.12.2026 -
Donyell Malen AS Roma Actif 163 / 148 40% 4 21.12.2026 -
Yan Diomandé Real Madrid Actif 141 / 156 40% 4 20.12.2026 -
Nuno Tavares Lazio Actif 135 / 147 40% 3 17.12.2026 -
Rômulo RB Leipzig Actif 152 / 144 40% 3 17.12.2026 -
Gustav Isaksen Lazio Actif 140 / 143 40% 2 15.12.2026 -
Samú Al-Nassr Actif 135 / 147 40% 2 08.12.2026 -
Senny Mayulu Paris Saint-Germain Actif 150 / 148 40% 4 03.12.2026 -
Giacomo Raspadori Atalanta Actif 161 / 145 40% 5 02.12.2026 -
Gustavo Puerta Olympiacos Actif 138 / 140 40% 2 28.11.2026 -
Raoul Bellanova Atalanta Actif 139 / 148 40% 2 12.11.2026 -
Romano Schmid Frosinone Actif 148 / 143 40% 2 10.11.2026 -
Orkun Kökçü Besiktas Actif 165 / 147 40% 1 07.11.2026 -
Barış Alper Yılmaz Galatasaray Actif 147 / 150 40% 2 04.11.2026 -
Dodo Fiorentina Actif 159 / 147 40% 1 29.10.2026 -
Rodrigo Gomes Wolverhampton Actif 135 / 140 40% 2 22.10.2026 -
Yehor Yarmoliuk Brentford Actif 141 / 149 40% 1 22.10.2026 -
Xavi Simons Tottenham Actif 147 / 156 40% 2 20.10.2026 -
Moisés Caicedo Chelsea Actif 168 / 170 40% 6 19.10.2026 Observer
Carlos Vicente Birmingham Actif 147 / 139 40% 1 19.10.2026 -
Nico González Newcastle United Actif 152 / 159 40% 5 16.10.2026 -
Rayan Cherki Manchester City Actif 172 / 164 40% 4 16.10.2026 -
Tino Livramento Newcastle United Actif 165 / 156 40% 3 15.10.2026 -
Enzo Fernández Manchester City Actif 163 / 167 40% 1 15.10.2026 -
Adrien Truffert Bournemouth Actif 155 / 148 40% 1 13.10.2026 -
Morgan Rogers Chelsea Actif 152 / 160 40% 2 08.10.2026 -
Nico O'Reilly Manchester City Actif 139 / 155 40% 1 08.10.2026 -
Kai Havertz Arsenal Actif 152 / 159 40% 3 07.10.2026 -
Dominik Szoboszlai Liverpool Actif 155 / 166 40% 2 07.10.2026 -
Hugo Ekitiké Liverpool Actif 150 / 160 40% 3 05.10.2026 -
Sandro Tonali Tottenham Actif 173 / 171 40% 1 05.10.2026 -
Dango Ouattara Brentford Actif 153 / 143 40% 2 04.10.2026 -
Gonzalo Fulham Actif 149 / 146 40% 1 27.09.2026 -
Bradley Barcola Liverpool Actif 163 / 163 40% 1 27.09.2026 -
Adam Wharton Crystal Palace Actif 145 / 151 40% 2 21.09.2026 -
Alexis Mac Allister Liverpool Actif 153 / 160 40% 1 17.09.2026 -
Gabriel Martinelli Brighton Perdu 164 / 161 40% 1 17.09.2026 -
Mason Mount Manchester United Actif 147 / 149 40% 1 15.09.2026 -
Elliot Anderson Manchester City Actif 152 / 152 40% 1 14.09.2026 -
Ryan Gravenberch Liverpool Actif 169 / 159 40% 1 13.09.2026 -
Amad Manchester United Actif 160 / 153 40% 1 12.09.2026 -
Jeremie Frimpong Liverpool Actif 163 / 157 40% 1 07.09.2026 -